sensor_id;sensor_type;location;lat;lon;timestamp;P1;durP1;ratioP1;P2;durP2;ratioP2
19280;SDS011;9774;52.034;5.342;2023-06-22T00:01:25;4.68;;;3.40;;
19280;SDS011;9774;52.034;5.342;2023-06-22T00:03:52;3.80;;;2.67;;
19280;SDS011;9774;52.034;5.342;2023-06-22T00:06:20;3.17;;;2.30;;
19280;SDS011;9774;52.034;5.342;2023-06-22T00:08:47;4.45;;;3.10;;
19280;SDS011;9774;52.034;5.342;2023-06-22T00:11:14;4.00;;;2.58;;
19280;SDS011;9774;52.034;5.342;2023-06-22T00:13:42;3.42;;;2.88;;
19280;SDS011;9774;52.034;5.342;2023-06-22T00:16:09;4.07;;;3.17;;
19280;SDS011;9774;52.034;5.342;2023-06-22T00:18:38;3.72;;;3.30;;
19280;SDS011;9774;52.034;5.342;2023-06-22T00:21:11;4.70;;;2.80;;
19280;SDS011;9774;52.034;5.342;2023-06-22T00:23:39;3.70;;;3.28;;
19280;SDS011;9774;52.034;5.342;2023-06-22T00:26:06;4.68;;;3.58;;
19280;SDS011;9774;52.034;5.342;2023-06-22T00:28:33;7.70;;;4.10;;
19280;SDS011;9774;52.034;5.342;2023-06-22T00:31:01;3.50;;;3.15;;
19280;SDS011;9774;52.034;5.342;2023-06-22T00:33:28;4.47;;;3.58;;
19280;SDS011;9774;52.034;5.342;2023-06-22T00:35:57;5.28;;;4.13;;
19280;SDS011;9774;52.034;5.342;2023-06-22T00:38:25;4.65;;;3.70;;
19280;SDS011;9774;52.034;5.342;2023-06-22T00:40:52;3.90;;;3.50;;
19280;SDS011;9774;52.034;5.342;2023-06-22T00:43:19;5.38;;;4.32;;
19280;SDS011;9774;52.034;5.342;2023-06-22T00:45:47;4.65;;;3.90;;
19280;SDS011;9774;52.034;5.342;2023-06-22T00:48:14;5.47;;;4.13;;
19280;SDS011;9774;52.034;5.342;2023-06-22T00:50:42;5.60;;;4.28;;
19280;SDS011;9774;52.034;5.342;2023-06-22T00:53:11;4.63;;;3.75;;
19280;SDS011;9774;52.034;5.342;2023-06-22T00:55:40;5.70;;;3.65;;
19280;SDS011;9774;52.034;5.342;2023-06-22T00:58:10;4.45;;;4.00;;
19280;SDS011;9774;52.034;5.342;2023-06-22T01:00:38;4.07;;;3.65;;
19280;SDS011;9774;52.034;5.342;2023-06-22T01:03:06;7.88;;;3.95;;
19280;SDS011;9774;52.034;5.342;2023-06-22T01:05:35;4.25;;;3.50;;
19280;SDS011;9774;52.034;5.342;2023-06-22T01:08:05;3.70;;;3.28;;
19280;SDS011;9774;52.034;5.342;2023-06-22T01:10:40;4.70;;;3.72;;
19280;SDS011;9774;52.034;5.342;2023-06-22T01:13:21;4.53;;;3.83;;
19280;SDS011;9774;52.034;5.342;2023-06-22T01:15:57;3.92;;;3.50;;
19280;SDS011;9774;52.034;5.342;2023-06-22T01:18:29;6.70;;;4.50;;
19280;SDS011;9774;52.034;5.342;2023-06-22T01:20:58;4.25;;;3.53;;
19280;SDS011;9774;52.034;5.342;2023-06-22T01:23:29;6.95;;;3.80;;
19280;SDS011;9774;52.034;5.342;2023-06-22T01:26:06;4.57;;;4.13;;
19280;SDS011;9774;52.034;5.342;2023-06-22T01:28:43;5.95;;;3.85;;
19280;SDS011;9774;52.034;5.342;2023-06-22T01:31:13;5.43;;;4.13;;
19280;SDS011;9774;52.034;5.342;2023-06-22T01:33:43;5.57;;;4.47;;
19280;SDS011;9774;52.034;5.342;2023-06-22T01:36:14;6.53;;;4.40;;
19280;SDS011;9774;52.034;5.342;2023-06-22T01:38:44;5.03;;;4.35;;
19280;SDS011;9774;52.034;5.342;2023-06-22T01:41:13;5.95;;;4.30;;
19280;SDS011;9774;52.034;5.342;2023-06-22T01:43:40;5.50;;;4.63;;
19280;SDS011;9774;52.034;5.342;2023-06-22T01:46:10;5.55;;;4.18;;
19280;SDS011;9774;52.034;5.342;2023-06-22T01:48:38;5.63;;;3.95;;
19280;SDS011;9774;52.034;5.342;2023-06-22T01:51:05;6.68;;;4.05;;
19280;SDS011;9774;52.034;5.342;2023-06-22T01:53:33;5.20;;;4.05;;
19280;SDS011;9774;52.034;5.342;2023-06-22T01:56:00;5.68;;;3.58;;
19280;SDS011;9774;52.034;5.342;2023-06-22T01:58:28;4.43;;;3.58;;
19280;SDS011;9774;52.034;5.342;2023-06-22T02:01:00;3.92;;;3.53;;
19280;SDS011;9774;52.034;5.342;2023-06-22T02:03:38;4.88;;;3.50;;
19280;SDS011;9774;52.034;5.342;2023-06-22T02:06:11;4.63;;;3.53;;
19280;SDS011;9774;52.034;5.342;2023-06-22T02:08:46;6.53;;;4.00;;
19280;SDS011;9774;52.034;5.342;2023-06-22T02:11:16;4.97;;;3.72;;
19280;SDS011;9774;52.034;5.342;2023-06-22T02:13:46;5.05;;;4.35;;
19280;SDS011;9774;52.034;5.342;2023-06-22T02:16:15;5.25;;;4.40;;
19280;SDS011;9774;52.034;5.342;2023-06-22T02:18:45;5.43;;;4.00;;
19280;SDS011;9774;52.034;5.342;2023-06-22T02:21:16;6.05;;;4.20;;
19280;SDS011;9774;52.034;5.342;2023-06-22T02:23:43;6.57;;;4.15;;
19280;SDS011;9774;52.034;5.342;2023-06-22T02:26:11;4.10;;;3.70;;
19280;SDS011;9774;52.034;5.342;2023-06-22T02:28:39;4.72;;;4.30;;
19280;SDS011;9774;52.034;5.342;2023-06-22T02:31:06;5.85;;;4.45;;
19280;SDS011;9774;52.034;5.342;2023-06-22T02:33:35;5.63;;;4.53;;
19280;SDS011;9774;52.034;5.342;2023-06-22T02:36:02;4.97;;;3.90;;
19280;SDS011;9774;52.034;5.342;2023-06-22T02:38:32;5.55;;;4.55;;
19280;SDS011;9774;52.034;5.342;2023-06-22T02:40:59;6.70;;;5.13;;
19280;SDS011;9774;52.034;5.342;2023-06-22T02:43:27;7.30;;;4.57;;
19280;SDS011;9774;52.034;5.342;2023-06-22T02:45:54;5.40;;;3.90;;
19280;SDS011;9774;52.034;5.342;2023-06-22T02:48:22;4.53;;;4.00;;
19280;SDS011;9774;52.034;5.342;2023-06-22T02:50:51;8.52;;;4.57;;
19280;SDS011;9774;52.034;5.342;2023-06-22T02:53:18;5.72;;;4.60;;
19280;SDS011;9774;52.034;5.342;2023-06-22T02:55:46;8.25;;;4.97;;
19280;SDS011;9774;52.034;5.342;2023-06-22T02:58:13;7.93;;;5.07;;
19280;SDS011;9774;52.034;5.342;2023-06-22T03:00:41;6.55;;;5.07;;
19280;SDS011;9774;52.034;5.342;2023-06-22T03:03:08;5.30;;;4.57;;
19280;SDS011;9774;52.034;5.342;2023-06-22T03:05:36;7.25;;;4.97;;
19280;SDS011;9774;52.034;5.342;2023-06-22T03:08:06;5.53;;;4.05;;
19280;SDS011;9774;52.034;5.342;2023-06-22T03:10:35;5.13;;;4.63;;
19280;SDS011;9774;52.034;5.342;2023-06-22T03:13:02;5.53;;;4.75;;
19280;SDS011;9774;52.034;5.342;2023-06-22T03:15:30;6.28;;;4.82;;
19280;SDS011;9774;52.034;5.342;2023-06-22T03:17:58;7.40;;;4.82;;
19280;SDS011;9774;52.034;5.342;2023-06-22T03:20:25;5.50;;;4.50;;
19280;SDS011;9774;52.034;5.342;2023-06-22T03:22:58;5.90;;;4.05;;
19280;SDS011;9774;52.034;5.342;2023-06-22T03:25:27;7.25;;;5.70;;
19280;SDS011;9774;52.034;5.342;2023-06-22T03:27:54;6.00;;;4.60;;
19280;SDS011;9774;52.034;5.342;2023-06-22T03:30:21;6.70;;;5.03;;
19280;SDS011;9774;52.034;5.342;2023-06-22T03:32:49;6.60;;;4.60;;
19280;SDS011;9774;52.034;5.342;2023-06-22T03:35:17;5.20;;;4.45;;
19280;SDS011;9774;52.034;5.342;2023-06-22T03:37:44;5.57;;;4.45;;
19280;SDS011;9774;52.034;5.342;2023-06-22T03:40:12;5.68;;;4.43;;
19280;SDS011;9774;52.034;5.342;2023-06-22T03:42:41;4.82;;;4.35;;
19280;SDS011;9774;52.034;5.342;2023-06-22T03:45:08;6.70;;;4.90;;
19280;SDS011;9774;52.034;5.342;2023-06-22T03:47:36;5.22;;;4.18;;
19280;SDS011;9774;52.034;5.342;2023-06-22T03:50:04;6.50;;;4.32;;
19280;SDS011;9774;52.034;5.342;2023-06-22T03:52:32;5.40;;;4.07;;
19280;SDS011;9774;52.034;5.342;2023-06-22T03:55:00;6.38;;;4.88;;
19280;SDS011;9774;52.034;5.342;2023-06-22T03:57:27;6.60;;;5.00;;
19280;SDS011;9774;52.034;5.342;2023-06-22T03:59:57;7.43;;;4.95;;
19280;SDS011;9774;52.034;5.342;2023-06-22T04:02:24;6.75;;;5.00;;
19280;SDS011;9774;52.034;5.342;2023-06-22T04:04:52;6.63;;;4.72;;
19280;SDS011;9774;52.034;5.342;2023-06-22T04:07:19;6.47;;;4.68;;
19280;SDS011;9774;52.034;5.342;2023-06-22T04:09:46;9.23;;;3.78;;
19280;SDS011;9774;52.034;5.342;2023-06-22T04:12:15;6.65;;;5.50;;
19280;SDS011;9774;52.034;5.342;2023-06-22T04:14:42;5.15;;;4.47;;
19280;SDS011;9774;52.034;5.342;2023-06-22T04:17:11;7.53;;;4.95;;
19280;SDS011;9774;52.034;5.342;2023-06-22T04:19:39;5.43;;;4.30;;
19280;SDS011;9774;52.034;5.342;2023-06-22T04:22:06;6.35;;;4.78;;
19280;SDS011;9774;52.034;5.342;2023-06-22T04:24:35;5.20;;;4.45;;
19280;SDS011;9774;52.034;5.342;2023-06-22T04:27:02;7.25;;;5.05;;
19280;SDS011;9774;52.034;5.342;2023-06-22T04:29:30;5.22;;;4.72;;
19280;SDS011;9774;52.034;5.342;2023-06-22T04:31:57;5.43;;;4.78;;
19280;SDS011;9774;52.034;5.342;2023-06-22T04:34:32;6.47;;;5.03;;
19280;SDS011;9774;52.034;5.342;2023-06-22T04:36:59;6.00;;;5.40;;
19280;SDS011;9774;52.034;5.342;2023-06-22T04:39:27;6.05;;;5.07;;
19280;SDS011;9774;52.034;5.342;2023-06-22T04:41:54;7.07;;;5.63;;
19280;SDS011;9774;52.034;5.342;2023-06-22T04:44:25;7.47;;;5.50;;
19280;SDS011;9774;52.034;5.342;2023-06-22T04:46:53;8.93;;;5.50;;
19280;SDS011;9774;52.034;5.342;2023-06-22T04:49:25;7.05;;;5.63;;
19280;SDS011;9774;52.034;5.342;2023-06-22T04:51:59;6.47;;;5.28;;
19280;SDS011;9774;52.034;5.342;2023-06-22T04:54:27;7.43;;;5.60;;
19280;SDS011;9774;52.034;5.342;2023-06-22T04:56:54;6.75;;;5.95;;
19280;SDS011;9774;52.034;5.342;2023-06-22T04:59:22;7.80;;;5.43;;
19280;SDS011;9774;52.034;5.342;2023-06-22T05:01:53;7.53;;;5.35;;
19280;SDS011;9774;52.034;5.342;2023-06-22T05:04:21;7.32;;;5.80;;
19280;SDS011;9774;52.034;5.342;2023-06-22T05:06:49;7.35;;;5.90;;
19280;SDS011;9774;52.034;5.342;2023-06-22T05:09:18;7.35;;;5.75;;
19280;SDS011;9774;52.034;5.342;2023-06-22T05:11:45;9.88;;;6.68;;
19280;SDS011;9774;52.034;5.342;2023-06-22T05:14:13;9.02;;;6.45;;
19280;SDS011;9774;52.034;5.342;2023-06-22T05:16:43;7.70;;;6.25;;
19280;SDS011;9774;52.034;5.342;2023-06-22T05:19:11;8.23;;;6.40;;
19280;SDS011;9774;52.034;5.342;2023-06-22T05:21:38;8.10;;;7.03;;
19280;SDS011;9774;52.034;5.342;2023-06-22T05:24:06;7.90;;;6.25;;
19280;SDS011;9774;52.034;5.342;2023-06-22T05:26:34;10.48;;;7.10;;
19280;SDS011;9774;52.034;5.342;2023-06-22T05:29:02;9.10;;;7.03;;
19280;SDS011;9774;52.034;5.342;2023-06-22T05:31:29;7.32;;;6.57;;
19280;SDS011;9774;52.034;5.342;2023-06-22T05:33:57;9.57;;;7.90;;
19280;SDS011;9774;52.034;5.342;2023-06-22T05:36:24;9.35;;;7.72;;
19280;SDS011;9774;52.034;5.342;2023-06-22T05:38:52;13.20;;;7.43;;
19280;SDS011;9774;52.034;5.342;2023-06-22T05:41:19;9.30;;;7.47;;
19280;SDS011;9774;52.034;5.342;2023-06-22T05:43:49;9.65;;;6.90;;
19280;SDS011;9774;52.034;5.342;2023-06-22T05:46:18;9.70;;;8.27;;
19280;SDS011;9774;52.034;5.342;2023-06-22T05:48:46;12.15;;;7.95;;
19280;SDS011;9774;52.034;5.342;2023-06-22T05:51:13;11.18;;;8.23;;
19280;SDS011;9774;52.034;5.342;2023-06-22T05:53:40;10.85;;;8.43;;
19280;SDS011;9774;52.034;5.342;2023-06-22T05:56:14;11.30;;;8.57;;
19280;SDS011;9774;52.034;5.342;2023-06-22T05:58:46;10.07;;;7.85;;
19280;SDS011;9774;52.034;5.342;2023-06-22T06:01:16;10.80;;;8.02;;
19280;SDS011;9774;52.034;5.342;2023-06-22T06:03:43;10.02;;;8.32;;
19280;SDS011;9774;52.034;5.342;2023-06-22T06:06:11;12.77;;;8.70;;
19280;SDS011;9774;52.034;5.342;2023-06-22T06:08:38;10.00;;;8.20;;
19280;SDS011;9774;52.034;5.342;2023-06-22T06:11:06;11.27;;;7.90;;
19280;SDS011;9774;52.034;5.342;2023-06-22T06:13:33;9.65;;;7.88;;
19280;SDS011;9774;52.034;5.342;2023-06-22T06:16:02;10.02;;;7.65;;
19280;SDS011;9774;52.034;5.342;2023-06-22T06:18:29;10.20;;;8.35;;
19280;SDS011;9774;52.034;5.342;2023-06-22T06:20:57;13.63;;;7.72;;
19280;SDS011;9774;52.034;5.342;2023-06-22T06:23:24;10.45;;;8.00;;
19280;SDS011;9774;52.034;5.342;2023-06-22T06:25:51;12.32;;;8.23;;
19280;SDS011;9774;52.034;5.342;2023-06-22T06:28:18;8.95;;;7.88;;
19280;SDS011;9774;52.034;5.342;2023-06-22T06:30:46;10.52;;;8.43;;
19280;SDS011;9774;52.034;5.342;2023-06-22T06:33:14;9.90;;;8.38;;
19280;SDS011;9774;52.034;5.342;2023-06-22T06:35:41;9.23;;;7.57;;
19280;SDS011;9774;52.034;5.342;2023-06-22T06:38:09;8.52;;;7.63;;
19280;SDS011;9774;52.034;5.342;2023-06-22T06:40:36;12.07;;;8.93;;
19280;SDS011;9774;52.034;5.342;2023-06-22T06:43:03;12.25;;;8.32;;
19280;SDS011;9774;52.034;5.342;2023-06-22T06:45:30;10.43;;;8.18;;
19280;SDS011;9774;52.034;5.342;2023-06-22T06:47:59;14.20;;;8.30;;
19280;SDS011;9774;52.034;5.342;2023-06-22T06:50:28;8.60;;;7.65;;
19280;SDS011;9774;52.034;5.342;2023-06-22T06:52:55;13.50;;;9.00;;
19280;SDS011;9774;52.034;5.342;2023-06-22T06:55:24;9.98;;;8.05;;
19280;SDS011;9774;52.034;5.342;2023-06-22T06:57:51;12.25;;;8.50;;
19280;SDS011;9774;52.034;5.342;2023-06-22T07:00:19;9.43;;;7.53;;
19280;SDS011;9774;52.034;5.342;2023-06-22T07:02:47;10.70;;;8.65;;
19280;SDS011;9774;52.034;5.342;2023-06-22T07:05:14;10.25;;;8.10;;
19280;SDS011;9774;52.034;5.342;2023-06-22T07:07:44;9.40;;;8.43;;
19280;SDS011;9774;52.034;5.342;2023-06-22T07:10:11;9.13;;;7.90;;
19280;SDS011;9774;52.034;5.342;2023-06-22T07:12:40;9.32;;;8.32;;
19280;SDS011;9774;52.034;5.342;2023-06-22T07:15:08;9.95;;;8.45;;
19280;SDS011;9774;52.034;5.342;2023-06-22T07:17:37;9.00;;;7.90;;
19280;SDS011;9774;52.034;5.342;2023-06-22T07:20:06;15.80;;;9.40;;
19280;SDS011;9774;52.034;5.342;2023-06-22T07:22:35;9.77;;;8.77;;
19280;SDS011;9774;52.034;5.342;2023-06-22T07:25:04;9.32;;;8.15;;
19280;SDS011;9774;52.034;5.342;2023-06-22T07:27:35;10.05;;;7.90;;
19280;SDS011;9774;52.034;5.342;2023-06-22T07:30:05;10.07;;;7.43;;
19280;SDS011;9774;52.034;5.342;2023-06-22T07:32:33;10.00;;;8.00;;
19280;SDS011;9774;52.034;5.342;2023-06-22T07:35:00;10.43;;;8.05;;
19280;SDS011;9774;52.034;5.342;2023-06-22T07:37:29;10.32;;;7.80;;
19280;SDS011;9774;52.034;5.342;2023-06-22T07:39:58;7.07;;;6.32;;
19280;SDS011;9774;52.034;5.342;2023-06-22T07:42:27;8.00;;;6.47;;
19280;SDS011;9774;52.034;5.342;2023-06-22T07:44:57;9.77;;;7.72;;
19280;SDS011;9774;52.034;5.342;2023-06-22T07:47:25;9.30;;;7.07;;
19280;SDS011;9774;52.034;5.342;2023-06-22T07:49:53;8.55;;;6.72;;
19280;SDS011;9774;52.034;5.342;2023-06-22T07:52:22;9.57;;;8.18;;
19280;SDS011;9774;52.034;5.342;2023-06-22T07:54:51;9.20;;;7.70;;
19280;SDS011;9774;52.034;5.342;2023-06-22T07:57:18;13.13;;;6.95;;
19280;SDS011;9774;52.034;5.342;2023-06-22T07:59:47;7.05;;;6.35;;
19280;SDS011;9774;52.034;5.342;2023-06-22T08:02:14;8.15;;;7.07;;
19280;SDS011;9774;52.034;5.342;2023-06-22T08:04:41;7.68;;;6.88;;
19280;SDS011;9774;52.034;5.342;2023-06-22T08:07:09;8.77;;;7.65;;
19280;SDS011;9774;52.034;5.342;2023-06-22T08:09:37;7.50;;;6.55;;
19280;SDS011;9774;52.034;5.342;2023-06-22T08:12:04;8.70;;;6.72;;
19280;SDS011;9774;52.034;5.342;2023-06-22T08:14:32;7.20;;;6.15;;
19280;SDS011;9774;52.034;5.342;2023-06-22T08:17:03;8.50;;;6.47;;
19280;SDS011;9774;52.034;5.342;2023-06-22T08:19:31;8.98;;;6.38;;
19280;SDS011;9774;52.034;5.342;2023-06-22T08:21:58;7.78;;;6.97;;
19280;SDS011;9774;52.034;5.342;2023-06-22T08:24:25;7.10;;;6.40;;
19280;SDS011;9774;52.034;5.342;2023-06-22T08:26:55;9.10;;;6.80;;
19280;SDS011;9774;52.034;5.342;2023-06-22T08:29:23;9.02;;;6.70;;
19280;SDS011;9774;52.034;5.342;2023-06-22T08:31:50;14.45;;;6.60;;
19280;SDS011;9774;52.034;5.342;2023-06-22T08:34:18;6.80;;;6.10;;
19280;SDS011;9774;52.034;5.342;2023-06-22T08:36:50;7.07;;;5.82;;
19280;SDS011;9774;52.034;5.342;2023-06-22T08:39:18;9.32;;;7.43;;
19280;SDS011;9774;52.034;5.342;2023-06-22T08:41:46;6.50;;;5.85;;
19280;SDS011;9774;52.034;5.342;2023-06-22T08:44:13;7.28;;;6.45;;
19280;SDS011;9774;52.034;5.342;2023-06-22T08:46:43;7.45;;;6.15;;
19280;SDS011;9774;52.034;5.342;2023-06-22T08:49:10;6.68;;;5.82;;
19280;SDS011;9774;52.034;5.342;2023-06-22T08:51:39;7.13;;;5.53;;
19280;SDS011;9774;52.034;5.342;2023-06-22T08:54:06;7.00;;;4.82;;
19280;SDS011;9774;52.034;5.342;2023-06-22T08:56:34;5.85;;;5.25;;
19280;SDS011;9774;52.034;5.342;2023-06-22T08:59:01;8.23;;;5.35;;
19280;SDS011;9774;52.034;5.342;2023-06-22T09:01:28;5.93;;;5.13;;
19280;SDS011;9774;52.034;5.342;2023-06-22T09:03:55;5.00;;;4.50;;
19280;SDS011;9774;52.034;5.342;2023-06-22T09:06:25;6.50;;;5.03;;
19280;SDS011;9774;52.034;5.342;2023-06-22T09:08:54;5.38;;;4.80;;
19280;SDS011;9774;52.034;5.342;2023-06-22T09:11:21;4.05;;;3.60;;
19280;SDS011;9774;52.034;5.342;2023-06-22T09:13:49;4.72;;;3.67;;
19280;SDS011;9774;52.034;5.342;2023-06-22T09:16:17;5.07;;;3.72;;
19280;SDS011;9774;52.034;5.342;2023-06-22T09:18:46;4.00;;;3.65;;
19280;SDS011;9774;52.034;5.342;2023-06-22T09:21:14;4.30;;;3.75;;
19280;SDS011;9774;52.034;5.342;2023-06-22T09:23:41;4.43;;;3.67;;
19280;SDS011;9774;52.034;5.342;2023-06-22T09:26:12;4.97;;;3.58;;
19280;SDS011;9774;52.034;5.342;2023-06-22T09:28:39;5.20;;;3.67;;
19280;SDS011;9774;52.034;5.342;2023-06-22T09:31:07;4.93;;;4.00;;
19280;SDS011;9774;52.034;5.342;2023-06-22T09:33:34;5.25;;;4.47;;
19280;SDS011;9774;52.034;5.342;2023-06-22T09:36:03;5.75;;;4.15;;
19280;SDS011;9774;52.034;5.342;2023-06-22T09:38:33;6.68;;;4.05;;
19280;SDS011;9774;52.034;5.342;2023-06-22T09:41:01;4.93;;;4.45;;
19280;SDS011;9774;52.034;5.342;2023-06-22T09:43:31;4.43;;;3.60;;
19280;SDS011;9774;52.034;5.342;2023-06-22T09:46:00;4.63;;;3.70;;
19280;SDS011;9774;52.034;5.342;2023-06-22T09:48:28;6.60;;;4.20;;
19280;SDS011;9774;52.034;5.342;2023-06-22T09:50:56;4.03;;;3.63;;
19280;SDS011;9774;52.034;5.342;2023-06-22T09:53:23;4.28;;;3.45;;
19280;SDS011;9774;52.034;5.342;2023-06-22T09:55:50;3.85;;;3.55;;
19280;SDS011;9774;52.034;5.342;2023-06-22T09:58:18;4.65;;;3.92;;
19280;SDS011;9774;52.034;5.342;2023-06-22T10:00:47;3.67;;;3.30;;
19280;SDS011;9774;52.034;5.342;2023-06-22T10:03:15;5.82;;;4.05;;
19280;SDS011;9774;52.034;5.342;2023-06-22T10:05:42;5.40;;;2.95;;
19280;SDS011;9774;52.034;5.342;2023-06-22T10:08:09;3.00;;;2.75;;
19280;SDS011;9774;52.034;5.342;2023-06-22T10:10:37;2.90;;;2.60;;
19280;SDS011;9774;52.034;5.342;2023-06-22T10:13:07;4.40;;;3.25;;
19280;SDS011;9774;52.034;5.342;2023-06-22T10:15:36;4.95;;;3.85;;
19280;SDS011;9774;52.034;5.342;2023-06-22T10:18:05;4.05;;;2.95;;
19280;SDS011;9774;52.034;5.342;2023-06-22T10:20:32;4.30;;;3.33;;
19280;SDS011;9774;52.034;5.342;2023-06-22T10:23:00;3.60;;;2.78;;
19280;SDS011;9774;52.034;5.342;2023-06-22T10:25:27;3.17;;;2.88;;
19280;SDS011;9774;52.034;5.342;2023-06-22T10:27:54;5.22;;;3.05;;
19280;SDS011;9774;52.034;5.342;2023-06-22T10:30:22;2.97;;;2.58;;
19280;SDS011;9774;52.034;5.342;2023-06-22T10:32:49;5.53;;;2.60;;
19280;SDS011;9774;52.034;5.342;2023-06-22T10:35:18;4.22;;;2.50;;
19280;SDS011;9774;52.034;5.342;2023-06-22T10:37:46;3.13;;;2.85;;
19280;SDS011;9774;52.034;5.342;2023-06-22T10:40:13;3.75;;;2.60;;
19280;SDS011;9774;52.034;5.342;2023-06-22T10:42:44;2.47;;;2.15;;
19280;SDS011;9774;52.034;5.342;2023-06-22T10:45:11;2.70;;;2.50;;
19280;SDS011;9774;52.034;5.342;2023-06-22T10:47:39;4.28;;;2.47;;
19280;SDS011;9774;52.034;5.342;2023-06-22T10:50:07;3.17;;;2.50;;
19280;SDS011;9774;52.034;5.342;2023-06-22T10:52:36;3.60;;;3.13;;
19280;SDS011;9774;52.034;5.342;2023-06-22T10:55:04;3.42;;;2.45;;
19280;SDS011;9774;52.034;5.342;2023-06-22T10:57:32;3.70;;;2.95;;
19280;SDS011;9774;52.034;5.342;2023-06-22T10:59:59;3.33;;;2.53;;
19280;SDS011;9774;52.034;5.342;2023-06-22T11:02:26;3.28;;;2.40;;
19280;SDS011;9774;52.034;5.342;2023-06-22T11:04:54;5.00;;;2.42;;
19280;SDS011;9774;52.034;5.342;2023-06-22T11:07:21;3.78;;;2.55;;
19280;SDS011;9774;52.034;5.342;2023-06-22T11:09:50;4.13;;;2.30;;
19280;SDS011;9774;52.034;5.342;2023-06-22T11:12:20;3.03;;;2.70;;
19280;SDS011;9774;52.034;5.342;2023-06-22T11:14:48;3.53;;;2.60;;
19280;SDS011;9774;52.034;5.342;2023-06-22T11:17:16;2.97;;;2.60;;
19280;SDS011;9774;52.034;5.342;2023-06-22T11:19:44;5.22;;;2.92;;
19280;SDS011;9774;52.034;5.342;2023-06-22T11:22:11;3.90;;;2.95;;
19280;SDS011;9774;52.034;5.342;2023-06-22T11:24:39;3.80;;;2.72;;
19280;SDS011;9774;52.034;5.342;2023-06-22T11:27:07;4.40;;;2.63;;
19280;SDS011;9774;52.034;5.342;2023-06-22T11:29:35;3.88;;;2.60;;
19280;SDS011;9774;52.034;5.342;2023-06-22T11:32:04;3.13;;;2.83;;
19280;SDS011;9774;52.034;5.342;2023-06-22T11:34:32;2.90;;;2.60;;
19280;SDS011;9774;52.034;5.342;2023-06-22T11:37:00;12.02;;;3.05;;
19280;SDS011;9774;52.034;5.342;2023-06-22T11:39:27;4.63;;;2.58;;
19280;SDS011;9774;52.034;5.342;2023-06-22T11:41:55;5.18;;;2.88;;
19280;SDS011;9774;52.034;5.342;2023-06-22T11:44:25;3.50;;;2.97;;
19280;SDS011;9774;52.034;5.342;2023-06-22T11:46:53;4.35;;;3.30;;
19280;SDS011;9774;52.034;5.342;2023-06-22T11:49:20;5.45;;;3.60;;
19280;SDS011;9774;52.034;5.342;2023-06-22T11:51:47;4.15;;;3.17;;
19280;SDS011;9774;52.034;5.342;2023-06-22T11:54:15;3.72;;;2.75;;
19280;SDS011;9774;52.034;5.342;2023-06-22T11:56:42;3.42;;;2.95;;
19280;SDS011;9774;52.034;5.342;2023-06-22T11:59:09;4.68;;;3.22;;
19280;SDS011;9774;52.034;5.342;2023-06-22T12:01:38;3.03;;;2.60;;
19280;SDS011;9774;52.034;5.342;2023-06-22T12:04:05;3.47;;;3.00;;
19280;SDS011;9774;52.034;5.342;2023-06-22T12:06:38;3.50;;;3.20;;
19280;SDS011;9774;52.034;5.342;2023-06-22T12:09:07;3.63;;;3.33;;
19280;SDS011;9774;52.034;5.342;2023-06-22T12:11:35;4.32;;;3.63;;
19280;SDS011;9774;52.034;5.342;2023-06-22T12:14:03;4.05;;;3.53;;
19280;SDS011;9774;52.034;5.342;2023-06-22T12:16:31;4.50;;;3.15;;
19280;SDS011;9774;52.034;5.342;2023-06-22T12:18:59;4.38;;;3.70;;
19280;SDS011;9774;52.034;5.342;2023-06-22T12:21:27;4.68;;;3.97;;
19280;SDS011;9774;52.034;5.342;2023-06-22T12:23:54;5.93;;;3.70;;
19280;SDS011;9774;52.034;5.342;2023-06-22T12:26:21;7.78;;;3.42;;
19280;SDS011;9774;52.034;5.342;2023-06-22T12:28:49;3.85;;;3.22;;
19280;SDS011;9774;52.034;5.342;2023-06-22T12:31:16;3.88;;;3.47;;
19280;SDS011;9774;52.034;5.342;2023-06-22T12:33:44;4.93;;;3.85;;
19280;SDS011;9774;52.034;5.342;2023-06-22T12:36:13;4.60;;;3.75;;
19280;SDS011;9774;52.034;5.342;2023-06-22T12:38:41;4.47;;;3.90;;
19280;SDS011;9774;52.034;5.342;2023-06-22T12:41:08;7.05;;;4.07;;
19280;SDS011;9774;52.034;5.342;2023-06-22T12:43:36;5.10;;;4.60;;
19280;SDS011;9774;52.034;5.342;2023-06-22T12:46:03;4.25;;;3.85;;
19280;SDS011;9774;52.034;5.342;2023-06-22T12:48:30;4.93;;;4.18;;
19280;SDS011;9774;52.034;5.342;2023-06-22T12:50:58;5.47;;;4.85;;
19280;SDS011;9774;52.034;5.342;2023-06-22T12:53:26;5.75;;;4.80;;
19280;SDS011;9774;52.034;5.342;2023-06-22T12:55:54;4.30;;;3.90;;
19280;SDS011;9774;52.034;5.342;2023-06-22T12:58:21;5.25;;;4.38;;
19280;SDS011;9774;52.034;5.342;2023-06-22T13:00:48;5.80;;;4.45;;
19280;SDS011;9774;52.034;5.342;2023-06-22T13:03:16;6.38;;;4.25;;
19280;SDS011;9774;52.034;5.342;2023-06-22T13:05:43;6.10;;;5.35;;
19280;SDS011;9774;52.034;5.342;2023-06-22T13:08:10;7.10;;;5.22;;
19280;SDS011;9774;52.034;5.342;2023-06-22T13:10:41;6.55;;;4.72;;
19280;SDS011;9774;52.034;5.342;2023-06-22T13:13:08;5.32;;;4.80;;
19280;SDS011;9774;52.034;5.342;2023-06-22T13:15:36;6.30;;;5.22;;
19280;SDS011;9774;52.034;5.342;2023-06-22T13:18:03;5.35;;;4.78;;
19280;SDS011;9774;52.034;5.342;2023-06-22T13:20:30;5.50;;;4.72;;
19280;SDS011;9774;52.034;5.342;2023-06-22T13:23:00;7.40;;;5.13;;
19280;SDS011;9774;52.034;5.342;2023-06-22T13:25:27;7.25;;;4.80;;
19280;SDS011;9774;52.034;5.342;2023-06-22T13:27:56;10.18;;;5.28;;
19280;SDS011;9774;52.034;5.342;2023-06-22T13:30:23;5.75;;;4.78;;
19280;SDS011;9774;52.034;5.342;2023-06-22T13:32:51;4.80;;;4.35;;
19280;SDS011;9774;52.034;5.342;2023-06-22T13:35:18;5.50;;;4.85;;
19280;SDS011;9774;52.034;5.342;2023-06-22T13:37:45;4.93;;;4.05;;
19280;SDS011;9774;52.034;5.342;2023-06-22T13:40:13;5.88;;;4.70;;
19280;SDS011;9774;52.034;5.342;2023-06-22T13:42:40;5.25;;;4.75;;
19280;SDS011;9774;52.034;5.342;2023-06-22T13:45:09;6.53;;;4.57;;
19280;SDS011;9774;52.034;5.342;2023-06-22T13:47:36;5.20;;;4.65;;
19280;SDS011;9774;52.034;5.342;2023-06-22T13:50:04;6.50;;;4.88;;
19280;SDS011;9774;52.034;5.342;2023-06-22T13:52:32;6.20;;;5.28;;
19280;SDS011;9774;52.034;5.342;2023-06-22T13:55:00;8.73;;;6.25;;
19280;SDS011;9774;52.034;5.342;2023-06-22T13:57:27;7.57;;;5.82;;
19280;SDS011;9774;52.034;5.342;2023-06-22T13:59:54;5.70;;;5.13;;
19280;SDS011;9774;52.034;5.342;2023-06-22T14:02:23;6.70;;;5.97;;
19280;SDS011;9774;52.034;5.342;2023-06-22T14:04:53;9.27;;;6.63;;
19280;SDS011;9774;52.034;5.342;2023-06-22T14:07:20;11.68;;;6.43;;
19280;SDS011;9774;52.034;5.342;2023-06-22T14:09:49;7.68;;;6.22;;
19280;SDS011;9774;52.034;5.342;2023-06-22T14:12:16;7.18;;;6.47;;
19280;SDS011;9774;52.034;5.342;2023-06-22T14:14:44;6.03;;;5.43;;
19280;SDS011;9774;52.034;5.342;2023-06-22T14:17:11;6.53;;;5.68;;
19280;SDS011;9774;52.034;5.342;2023-06-22T14:19:40;7.50;;;6.57;;
19280;SDS011;9774;52.034;5.342;2023-06-22T14:22:07;6.72;;;6.07;;
19280;SDS011;9774;52.034;5.342;2023-06-22T14:24:34;6.53;;;5.90;;
19280;SDS011;9774;52.034;5.342;2023-06-22T14:27:02;6.65;;;6.05;;
19280;SDS011;9774;52.034;5.342;2023-06-22T14:29:32;7.88;;;7.00;;
19280;SDS011;9774;52.034;5.342;2023-06-22T14:32:00;9.90;;;6.88;;
19280;SDS011;9774;52.034;5.342;2023-06-22T14:34:27;7.55;;;6.85;;
19280;SDS011;9774;52.034;5.342;2023-06-22T14:36:56;6.80;;;6.13;;
19280;SDS011;9774;52.034;5.342;2023-06-22T14:39:23;6.93;;;6.22;;
19280;SDS011;9774;52.034;5.342;2023-06-22T14:41:50;7.82;;;6.43;;
19280;SDS011;9774;52.034;5.342;2023-06-22T14:44:18;7.95;;;7.15;;
19280;SDS011;9774;52.034;5.342;2023-06-22T14:46:45;6.82;;;6.22;;
19280;SDS011;9774;52.034;5.342;2023-06-22T14:49:13;9.07;;;6.93;;
19280;SDS011;9774;52.034;5.342;2023-06-22T14:51:40;7.28;;;6.32;;
19280;SDS011;9774;52.034;5.342;2023-06-22T14:54:09;7.28;;;6.38;;
19280;SDS011;9774;52.034;5.342;2023-06-22T14:56:36;9.68;;;6.75;;
19280;SDS011;9774;52.034;5.342;2023-06-22T14:59:03;10.27;;;7.40;;
19280;SDS011;9774;52.034;5.342;2023-06-22T15:01:31;9.35;;;7.03;;
19280;SDS011;9774;52.034;5.342;2023-06-22T15:03:58;6.85;;;6.07;;
19280;SDS011;9774;52.034;5.342;2023-06-22T15:06:26;6.72;;;5.97;;